sensor_id;sensor_type;location;lat;lon;timestamp;pressure;altitude;pressure_sealevel;temperature;humidity
32452;BME280;45528;52.102;5.242;2023-03-20T00:00:34;101541.0;;;15.02;59.36
32452;BME280;45528;52.102;5.242;2023-03-20T00:02:18;101549.0;;;15.13;59.29
32452;BME280;45528;52.102;5.242;2023-03-20T00:03:58;101540.0;;;15.19;59.14
32452;BME280;45528;52.102;5.242;2023-03-20T00:07:11;101539.0;;;15.0;59.53
32452;BME280;45528;52.102;5.242;2023-03-20T00:08:49;101543.0;;;15.12;59.26
32452;BME280;45528;52.102;5.242;2023-03-20T00:10:34;101546.0;;;15.12;59.09
32452;BME280;45528;52.102;5.242;2023-03-20T00:12:14;101546.0;;;14.96;59.38
32452;BME280;45528;52.102;5.242;2023-03-20T00:15:35;101544.0;;;15.16;58.95
32452;BME280;45528;52.102;5.242;2023-03-20T00:17:13;101545.0;;;15.15;59.08
32452;BME280;45528;52.102;5.242;2023-03-20T00:18:53;101541.0;;;15.14;59.11
32452;BME280;45528;52.102;5.242;2023-03-20T00:20:30;101538.0;;;15.19;59.02
32452;BME280;45528;52.102;5.242;2023-03-20T00:23:44;101533.0;;;15.11;58.93
32452;BME280;45528;52.102;5.242;2023-03-20T00:25:22;101534.0;;;15.25;58.6
32452;BME280;45528;52.102;5.242;2023-03-20T00:27:00;101532.0;;;15.32;58.23
32452;BME280;45528;52.102;5.242;2023-03-20T00:30:21;101528.0;;;15.2;58.71
32452;BME280;45528;52.102;5.242;2023-03-20T00:31:58;101530.0;;;15.04;58.86
32452;BME280;45528;52.102;5.242;2023-03-20T00:33:35;101527.0;;;15.14;58.77
32452;BME280;45528;52.102;5.242;2023-03-20T00:35:22;101523.0;;;15.14;58.61
32452;BME280;45528;52.102;5.242;2023-03-20T00:38:35;101523.0;;;15.18;58.64
32452;BME280;45528;52.102;5.242;2023-03-20T00:40:12;101531.0;;;15.07;58.51
32452;BME280;45528;52.102;5.242;2023-03-20T00:41:50;101537.0;;;15.25;57.83
32452;BME280;45528;52.102;5.242;2023-03-20T00:43:28;101534.0;;;15.2;57.88
32452;BME280;45528;52.102;5.242;2023-03-20T00:46:51;101542.0;;;15.27;57.33
32452;BME280;45528;52.102;5.242;2023-03-20T00:48:29;101549.0;;;15.12;57.32
32452;BME280;45528;52.102;5.242;2023-03-20T00:50:12;101555.0;;;15.12;57.19
32452;BME280;45528;52.102;5.242;2023-03-20T00:51:51;101552.0;;;15.15;57.28
32452;BME280;45528;52.102;5.242;2023-03-20T00:55:04;101558.0;;;15.25;56.55
32452;BME280;45528;52.102;5.242;2023-03-20T00:56:42;101565.0;;;15.35;56.28
32452;BME280;45528;52.102;5.242;2023-03-20T00:58:20;101571.0;;;15.35;56.12
32452;BME280;45528;52.102;5.242;2023-03-20T01:01:37;101577.0;;;15.36;55.8
32452;BME280;45528;52.102;5.242;2023-03-20T01:03:15;101584.0;;;15.29;55.74
32452;BME280;45528;52.102;5.242;2023-03-20T01:04:54;101584.0;;;15.3;55.78
32452;BME280;45528;52.102;5.242;2023-03-20T01:06:31;101577.0;;;15.32;56.02
32452;BME280;45528;52.102;5.242;2023-03-20T01:09:54;101567.0;;;15.25;55.6
32452;BME280;45528;52.102;5.242;2023-03-20T01:11:31;101553.0;;;15.26;55.91
32452;BME280;45528;52.102;5.242;2023-03-20T01:13:14;101552.0;;;15.23;56.04
32452;BME280;45528;52.102;5.242;2023-03-20T01:14:56;101556.0;;;15.14;56.1
32452;BME280;45528;52.102;5.242;2023-03-20T01:18:11;101563.0;;;15.08;56.13
32452;BME280;45528;52.102;5.242;2023-03-20T01:19:48;101567.0;;;15.05;56.39
32452;BME280;45528;52.102;5.242;2023-03-20T01:21:25;101569.0;;;15.02;56.14
32452;BME280;45528;52.102;5.242;2023-03-20T01:24:39;101568.0;;;14.92;56.31
32452;BME280;45528;52.102;5.242;2023-03-20T01:26:20;101572.0;;;14.97;56.38
32452;BME280;45528;52.102;5.242;2023-03-20T01:27:59;101569.0;;;15.07;56.03
32452;BME280;45528;52.102;5.242;2023-03-20T01:29:36;101567.0;;;15.0;56.29
32452;BME280;45528;52.102;5.242;2023-03-20T01:32:53;101565.0;;;14.99;55.97
32452;BME280;45528;52.102;5.242;2023-03-20T01:34:29;101567.0;;;14.94;56.2
32452;BME280;45528;52.102;5.242;2023-03-20T01:36:08;101563.0;;;14.77;56.9
32452;BME280;45528;52.102;5.242;2023-03-20T01:39:27;101558.0;;;14.86;56.33
32452;BME280;45528;52.102;5.242;2023-03-20T01:41:11;101566.0;;;15.1;55.9
32452;BME280;45528;52.102;5.242;2023-03-20T01:42:48;101570.0;;;15.09;55.82
32452;BME280;45528;52.102;5.242;2023-03-20T01:44:27;101566.0;;;15.12;55.66
32452;BME280;45528;52.102;5.242;2023-03-20T01:47:54;101558.0;;;15.08;55.9
32452;BME280;45528;52.102;5.242;2023-03-20T01:50:35;101555.0;;;15.01;56.21
32452;BME280;45528;52.102;5.242;2023-03-20T01:52:11;101548.0;;;14.91;56.57
32452;BME280;45528;52.102;5.242;2023-03-20T01:53:49;101550.0;;;14.69;56.6
32452;BME280;45528;52.102;5.242;2023-03-20T01:55:28;101552.0;;;14.63;56.78
32452;BME280;45528;52.102;5.242;2023-03-20T01:57:08;101558.0;;;14.68;56.7
32452;BME280;45528;52.102;5.242;2023-03-20T01:58:51;101569.0;;;14.67;56.65
32452;BME280;45528;52.102;5.242;2023-03-20T02:02:13;101569.0;;;14.65;56.7
32452;BME280;45528;52.102;5.242;2023-03-20T02:03:52;101568.0;;;14.8;56.45
32452;BME280;45528;52.102;5.242;2023-03-20T02:05:29;101561.0;;;14.84;56.53
32452;BME280;45528;52.102;5.242;2023-03-20T02:08:48;101563.0;;;14.8;56.39
32452;BME280;45528;52.102;5.242;2023-03-20T02:10:25;101568.0;;;14.65;56.51
32452;BME280;45528;52.102;5.242;2023-03-20T02:12:02;101574.0;;;14.61;56.51
32452;BME280;45528;52.102;5.242;2023-03-20T02:13:39;101568.0;;;14.69;56.31
32452;BME280;45528;52.102;5.242;2023-03-20T02:16:53;101571.0;;;14.65;56.67
32452;BME280;45528;52.102;5.242;2023-03-20T02:18:30;101556.0;;;14.68;56.62
32452;BME280;45528;52.102;5.242;2023-03-20T02:20:15;101555.0;;;14.62;56.26
32452;BME280;45528;52.102;5.242;2023-03-20T02:22:51;101544.0;;;14.6;56.23
32452;BME280;45528;52.102;5.242;2023-03-20T02:25:36;101538.0;;;14.82;55.67
32452;BME280;45528;52.102;5.242;2023-03-20T02:26:25;101534.0;;;14.72;55.74
32452;BME280;45528;52.102;5.242;2023-03-20T02:28:32;101537.0;;;14.71;55.79
32452;BME280;45528;52.102;5.242;2023-03-20T02:31:00;101541.0;;;14.76;55.92
32452;BME280;45528;52.102;5.242;2023-03-20T02:33:26;101546.0;;;14.77;55.62
32452;BME280;45528;52.102;5.242;2023-03-20T02:35:53;101541.0;;;14.72;56.06
32452;BME280;45528;52.102;5.242;2023-03-20T02:40:15;101533.0;;;14.63;56.49
32452;BME280;45528;52.102;5.242;2023-03-20T02:41:59;101536.0;;;14.5;57.12
32452;BME280;45528;52.102;5.242;2023-03-20T02:43:45;101544.0;;;14.34;57.21
32452;BME280;45528;52.102;5.242;2023-03-20T02:45:30;101535.0;;;14.41;57.16
32452;BME280;45528;52.102;5.242;2023-03-20T02:47:12;101539.0;;;14.49;57.12
32452;BME280;45528;52.102;5.242;2023-03-20T02:50:41;101542.0;;;14.32;57.29
32452;BME280;45528;52.102;5.242;2023-03-20T02:52:32;101530.0;;;14.25;57.45
32452;BME280;45528;52.102;5.242;2023-03-20T02:54:12;101517.0;;;14.39;57.45
32452;BME280;45528;52.102;5.242;2023-03-20T02:56:02;101506.0;;;14.26;57.49
32452;BME280;45528;52.102;5.242;2023-03-20T02:57:49;101498.0;;;14.15;57.67
32452;BME280;45528;52.102;5.242;2023-03-20T02:59:34;101489.0;;;14.19;57.57
32452;BME280;45528;52.102;5.242;2023-03-20T03:03:05;101489.0;;;14.1;57.77
32452;BME280;45528;52.102;5.242;2023-03-20T03:04:48;101484.0;;;13.97;58.2
32452;BME280;45528;52.102;5.242;2023-03-20T03:06:28;101464.0;;;14.09;58.05
32452;BME280;45528;52.102;5.242;2023-03-20T03:08:08;101471.0;;;14.0;58.05
32452;BME280;45528;52.102;5.242;2023-03-20T03:11:29;101480.0;;;13.92;58.37
32452;BME280;45528;52.102;5.242;2023-03-20T03:13:12;101494.0;;;13.95;58.51
32452;BME280;45528;52.102;5.242;2023-03-20T03:14:52;101495.0;;;13.98;58.43
32452;BME280;45528;52.102;5.242;2023-03-20T03:16:32;101485.0;;;13.92;58.6
32452;BME280;45528;52.102;5.242;2023-03-20T03:19:57;101489.0;;;13.86;58.7
32452;BME280;45528;52.102;5.242;2023-03-20T03:21:38;101495.0;;;13.88;58.88
32452;BME280;45528;52.102;5.242;2023-03-20T03:23:20;101497.0;;;13.81;58.77
32452;BME280;45528;52.102;5.242;2023-03-20T03:25:03;101500.0;;;13.79;58.79
32452;BME280;45528;52.102;5.242;2023-03-20T03:26:40;101495.0;;;13.81;58.84
32452;BME280;45528;52.102;5.242;2023-03-20T03:30:06;101490.0;;;13.89;58.34
32452;BME280;45528;52.102;5.242;2023-03-20T03:31:46;101489.0;;;13.66;59.03
32452;BME280;45528;52.102;5.242;2023-03-20T03:33:27;101494.0;;;13.67;58.89
32452;BME280;45528;52.102;5.242;2023-03-20T03:35:06;101492.0;;;13.76;58.5
32452;BME280;45528;52.102;5.242;2023-03-20T03:38:41;101488.0;;;13.75;58.65
32452;BME280;45528;52.102;5.242;2023-03-20T03:40:28;101490.0;;;13.67;59.1
32452;BME280;45528;52.102;5.242;2023-03-20T03:42:12;101485.0;;;13.56;59.18
32452;BME280;45528;52.102;5.242;2023-03-20T03:44:04;101481.0;;;13.44;59.31
32452;BME280;45528;52.102;5.242;2023-03-20T03:45:51;101484.0;;;13.47;59.27
32452;BME280;45528;52.102;5.242;2023-03-20T03:49:17;101476.0;;;13.54;59.25
32452;BME280;45528;52.102;5.242;2023-03-20T03:50:56;101476.0;;;13.39;59.87
32452;BME280;45528;52.102;5.242;2023-03-20T03:52:36;101467.0;;;13.53;59.4
32452;BME280;45528;52.102;5.242;2023-03-20T03:54:17;101466.0;;;13.6;59.3
32452;BME280;45528;52.102;5.242;2023-03-20T03:55:59;101460.0;;;13.48;59.48
32452;BME280;45528;52.102;5.242;2023-03-20T03:59:23;101456.0;;;13.54;59.31
32452;BME280;45528;52.102;5.242;2023-03-20T04:01:04;101447.0;;;13.61;59.25
32452;BME280;45528;52.102;5.242;2023-03-20T04:02:44;101449.0;;;13.45;59.55
32452;BME280;45528;52.102;5.242;2023-03-20T04:04:24;101456.0;;;13.48;59.34
32452;BME280;45528;52.102;5.242;2023-03-20T04:07:43;101456.0;;;13.24;59.99
32452;BME280;45528;52.102;5.242;2023-03-20T04:09:20;101456.0;;;13.4;59.63
32452;BME280;45528;52.102;5.242;2023-03-20T04:10:57;101457.0;;;13.53;59.22
32452;BME280;45528;52.102;5.242;2023-03-20T04:14:13;101448.0;;;13.56;59.14
32452;BME280;45528;52.102;5.242;2023-03-20T04:15:50;101443.0;;;13.42;59.1
32452;BME280;45528;52.102;5.242;2023-03-20T04:17:27;101438.0;;;13.45;59.21
32452;BME280;45528;52.102;5.242;2023-03-20T04:19:03;101443.0;;;13.41;58.99
32452;BME280;45528;52.102;5.242;2023-03-20T04:22:17;101439.0;;;13.43;59.06
32452;BME280;45528;52.102;5.242;2023-03-20T04:23:54;101446.0;;;13.37;59.0
32452;BME280;45528;52.102;5.242;2023-03-20T04:25:31;101443.0;;;13.44;58.99
32452;BME280;45528;52.102;5.242;2023-03-20T04:28:43;101442.0;;;13.39;59.29
32452;BME280;45528;52.102;5.242;2023-03-20T04:30:19;101445.0;;;13.44;58.88
32452;BME280;45528;52.102;5.242;2023-03-20T04:31:56;101445.0;;;13.51;58.82
32452;BME280;45528;52.102;5.242;2023-03-20T04:35:10;101455.0;;;13.48;58.7
32452;BME280;45528;52.102;5.242;2023-03-20T04:36:46;101455.0;;;13.5;58.47
32452;BME280;45528;52.102;5.242;2023-03-20T04:38:24;101455.0;;;13.53;58.45
32452;BME280;45528;52.102;5.242;2023-03-20T04:40:01;101459.0;;;13.34;58.89
32452;BME280;45528;52.102;5.242;2023-03-20T04:43:14;101453.0;;;13.57;58.38
32452;BME280;45528;52.102;5.242;2023-03-20T04:44:51;101446.0;;;13.49;58.63
32452;BME280;45528;52.102;5.242;2023-03-20T04:46:28;101448.0;;;13.36;58.93
32452;BME280;45528;52.102;5.242;2023-03-20T04:49:42;101443.0;;;13.43;58.97
32452;BME280;45528;52.102;5.242;2023-03-20T04:51:18;101445.0;;;13.48;59.1
32452;BME280;45528;52.102;5.242;2023-03-20T04:52:55;101451.0;;;13.51;58.84
32452;BME280;45528;52.102;5.242;2023-03-20T04:54:32;101455.0;;;13.51;58.86
32452;BME280;45528;52.102;5.242;2023-03-20T04:57:46;101445.0;;;13.48;59.05
32452;BME280;45528;52.102;5.242;2023-03-20T04:59:22;101443.0;;;13.55;58.67
32452;BME280;45528;52.102;5.242;2023-03-20T05:00:58;101434.0;;;13.59;58.66
32452;BME280;45528;52.102;5.242;2023-03-20T05:04:10;101439.0;;;13.52;58.91
32452;BME280;45528;52.102;5.242;2023-03-20T05:05:47;101440.0;;;13.63;58.5
32452;BME280;45528;52.102;5.242;2023-03-20T05:07:23;101440.0;;;13.6;58.71
32452;BME280;45528;52.102;5.242;2023-03-20T05:10:36;101440.0;;;13.59;58.78
32452;BME280;45528;52.102;5.242;2023-03-20T05:12:12;101439.0;;;13.51;58.75
32452;BME280;45528;52.102;5.242;2023-03-20T05:13:48;101436.0;;;13.6;58.45
32452;BME280;45528;52.102;5.242;2023-03-20T05:17:01;101431.0;;;13.55;58.85
32452;BME280;45528;52.102;5.242;2023-03-20T05:18:37;101433.0;;;13.47;59.08
32452;BME280;45528;52.102;5.242;2023-03-20T05:20:14;101431.0;;;13.55;58.82
32452;BME280;45528;52.102;5.242;2023-03-20T05:21:51;101437.0;;;13.6;58.78
32452;BME280;45528;52.102;5.242;2023-03-20T05:25:04;101435.0;;;13.75;58.24
32452;BME280;45528;52.102;5.242;2023-03-20T05:26:40;101436.0;;;13.69;58.4
32452;BME280;45528;52.102;5.242;2023-03-20T05:28:17;101436.0;;;13.61;58.6
32452;BME280;45528;52.102;5.242;2023-03-20T05:31:30;101438.0;;;13.6;58.63
32452;BME280;45528;52.102;5.242;2023-03-20T05:33:06;101432.0;;;13.54;58.82
32452;BME280;45528;52.102;5.242;2023-03-20T05:34:42;101434.0;;;13.6;58.75
32452;BME280;45528;52.102;5.242;2023-03-20T05:37:54;101433.0;;;13.48;59.25
32452;BME280;45528;52.102;5.242;2023-03-20T05:39:30;101436.0;;;13.54;59.05
32452;BME280;45528;52.102;5.242;2023-03-20T05:41:06;101435.0;;;13.58;58.79
32452;BME280;45528;52.102;5.242;2023-03-20T05:42:43;101438.0;;;13.47;58.97
32452;BME280;45528;52.102;5.242;2023-03-20T05:45:56;101448.0;;;13.54;58.96
32452;BME280;45528;52.102;5.242;2023-03-20T05:47:32;101451.0;;;13.49;59.06
32452;BME280;45528;52.102;5.242;2023-03-20T05:49:08;101453.0;;;13.55;58.79
32452;BME280;45528;52.102;5.242;2023-03-20T05:52:20;101458.0;;;13.53;58.93
32452;BME280;45528;52.102;5.242;2023-03-20T05:53:57;101462.0;;;13.51;58.85
32452;BME280;45528;52.102;5.242;2023-03-20T05:55:33;101463.0;;;13.54;58.96
32452;BME280;45528;52.102;5.242;2023-03-20T05:58:45;101462.0;;;13.54;58.95
32452;BME280;45528;52.102;5.242;2023-03-20T06:00:22;101461.0;;;13.45;58.84
32452;BME280;45528;52.102;5.242;2023-03-20T06:07:14;101458.0;;;13.36;59.08
32452;BME280;45528;52.102;5.242;2023-03-20T06:08:57;101458.0;;;13.54;59.07
32452;BME280;45528;52.102;5.242;2023-03-20T06:10:32;101452.0;;;13.61;59.08
32452;BME280;45528;52.102;5.242;2023-03-20T06:12:08;101451.0;;;13.62;58.81
32452;BME280;45528;52.102;5.242;2023-03-20T06:15:20;101455.0;;;13.71;58.77
32452;BME280;45528;52.102;5.242;2023-03-20T06:16:57;101457.0;;;13.6;58.85
32452;BME280;45528;52.102;5.242;2023-03-20T06:18:33;101460.0;;;13.7;58.75
32452;BME280;45528;52.102;5.242;2023-03-20T06:21:46;101455.0;;;13.73;58.68
32452;BME280;45528;52.102;5.242;2023-03-20T06:23:23;101462.0;;;13.73;58.82
32452;BME280;45528;52.102;5.242;2023-03-20T06:25:00;101464.0;;;13.6;58.95
32452;BME280;45528;52.102;5.242;2023-03-20T06:26:35;101464.0;;;13.56;58.86
32452;BME280;45528;52.102;5.242;2023-03-20T06:29:48;101469.0;;;13.55;58.91
32452;BME280;45528;52.102;5.242;2023-03-20T06:31:24;101473.0;;;13.59;58.95
32452;BME280;45528;52.102;5.242;2023-03-20T06:33:00;101473.0;;;13.46;59.27
32452;BME280;45528;52.102;5.242;2023-03-20T06:36:13;101476.0;;;13.53;58.75
32452;BME280;45528;52.102;5.242;2023-03-20T06:37:49;101477.0;;;13.78;58.45
32452;BME280;45528;52.102;5.242;2023-03-20T06:39:26;101477.0;;;13.67;58.63
32452;BME280;45528;52.102;5.242;2023-03-20T06:42:38;101478.0;;;13.61;58.67
32452;BME280;45528;52.102;5.242;2023-03-20T06:44:14;101480.0;;;13.61;58.61
32452;BME280;45528;52.102;5.242;2023-03-20T06:45:50;101478.0;;;13.52;58.86
32452;BME280;45528;52.102;5.242;2023-03-20T06:49:03;101480.0;;;13.79;58.22
32452;BME280;45528;52.102;5.242;2023-03-20T06:50:39;101482.0;;;13.82;58.2
32452;BME280;45528;52.102;5.242;2023-03-20T06:52:18;101483.0;;;13.8;58.32
32452;BME280;45528;52.102;5.242;2023-03-20T06:53:55;101485.0;;;13.84;58.26
32452;BME280;45528;52.102;5.242;2023-03-20T06:57:07;101485.0;;;13.62;58.99
32452;BME280;45528;52.102;5.242;2023-03-20T06:58:43;101486.0;;;13.76;58.6
32452;BME280;45528;52.102;5.242;2023-03-20T07:00:20;101485.0;;;13.73;58.73
32452;BME280;45528;52.102;5.242;2023-03-20T07:03:33;101487.0;;;13.78;58.52
32452;BME280;45528;52.102;5.242;2023-03-20T07:05:09;101487.0;;;13.74;58.78
32452;BME280;45528;52.102;5.242;2023-03-20T07:06:46;101486.0;;;13.64;58.78
32452;BME280;45528;52.102;5.242;2023-03-20T07:09:58;101487.0;;;13.63;58.96
32452;BME280;45528;52.102;5.242;2023-03-20T07:11:34;101496.0;;;13.79;58.6
32452;BME280;45528;52.102;5.242;2023-03-20T07:13:11;101495.0;;;13.75;58.74
32452;BME280;45528;52.102;5.242;2023-03-20T07:14:47;101492.0;;;13.6;58.99
32452;BME280;45528;52.102;5.242;2023-03-20T07:18:00;101495.0;;;13.65;58.84
32452;BME280;45528;52.102;5.242;2023-03-20T07:19:36;101495.0;;;13.73;58.74
32452;BME280;45528;52.102;5.242;2023-03-20T07:21:17;101500.0;;;13.75;58.98
32452;BME280;45528;52.102;5.242;2023-03-20T07:24:31;101498.0;;;13.71;58.93
32452;BME280;45528;52.102;5.242;2023-03-20T07:26:07;101502.0;;;13.73;58.94
32452;BME280;45528;52.102;5.242;2023-03-20T07:27:43;101500.0;;;13.5;59.34
32452;BME280;45528;52.102;5.242;2023-03-20T07:29:20;101498.0;;;13.66;59.21
32452;BME280;45528;52.102;5.242;2023-03-20T07:32:33;101499.0;;;13.67;59.05
32452;BME280;45528;52.102;5.242;2023-03-20T07:34:09;101496.0;;;13.57;59.28
32452;BME280;45528;52.102;5.242;2023-03-20T07:35:51;101495.0;;;13.64;59.12
32452;BME280;45528;52.102;5.242;2023-03-20T07:39:04;101493.0;;;13.65;59.13
32452;BME280;45528;52.102;5.242;2023-03-20T07:40:40;101496.0;;;13.83;58.79
32452;BME280;45528;52.102;5.242;2023-03-20T07:42:16;101498.0;;;13.92;58.45
32452;BME280;45528;52.102;5.242;2023-03-20T07:45:28;101495.0;;;13.83;58.62
32452;BME280;45528;52.102;5.242;2023-03-20T07:47:04;101493.0;;;13.93;58.52
32452;BME280;45528;52.102;5.242;2023-03-20T07:48:40;101491.0;;;13.96;58.05
32452;BME280;45528;52.102;5.242;2023-03-20T07:50:17;101497.0;;;13.88;58.27
32452;BME280;45528;52.102;5.242;2023-03-20T07:53:30;101491.0;;;13.91;58.2
32452;BME280;45528;52.102;5.242;2023-03-20T07:55:07;101496.0;;;13.96;58.18
32452;BME280;45528;52.102;5.242;2023-03-20T07:56:43;101493.0;;;13.55;58.91
32452;BME280;45528;52.102;5.242;2023-03-20T07:59:55;101489.0;;;13.92;58.4
32452;BME280;45528;52.102;5.242;2023-03-20T08:01:32;101493.0;;;13.92;58.05
32452;BME280;45528;52.102;5.242;2023-03-20T08:03:08;101498.0;;;14.04;57.79
32452;BME280;45528;52.102;5.242;2023-03-20T08:06:21;101493.0;;;14.23;57.89
32452;BME280;45528;52.102;5.242;2023-03-20T08:07:57;101493.0;;;14.4;57.35
32452;BME280;45528;52.102;5.242;2023-03-20T08:09:34;101492.0;;;14.39;57.59
32452;BME280;45528;52.102;5.242;2023-03-20T08:11:12;101497.0;;;13.89;57.6
32452;BME280;45528;52.102;5.242;2023-03-20T08:14:25;101492.0;;;14.29;57.04
32452;BME280;45528;52.102;5.242;2023-03-20T08:16:01;101495.0;;;14.27;57.06
32452;BME280;45528;52.102;5.242;2023-03-20T08:17:37;101495.0;;;14.3;56.72
32452;BME280;45528;52.102;5.242;2023-03-20T08:20:53;101499.0;;;14.16;57.18
32452;BME280;45528;52.102;5.242;2023-03-20T08:22:29;101499.0;;;14.41;56.99
32452;BME280;45528;52.102;5.242;2023-03-20T08:24:06;101494.0;;;14.57;56.82
32452;BME280;45528;52.102;5.242;2023-03-20T08:27:22;101494.0;;;14.44;56.61
32452;BME280;45528;52.102;5.242;2023-03-20T08:28:58;101491.0;;;14.48;56.28
32452;BME280;45528;52.102;5.242;2023-03-20T08:30:34;101498.0;;;14.62;56.36
32452;BME280;45528;52.102;5.242;2023-03-20T08:32:10;101494.0;;;14.58;56.25
32452;BME280;45528;52.102;5.242;2023-03-20T08:35:23;101491.0;;;14.77;55.54
32452;BME280;45528;52.102;5.242;2023-03-20T08:37:02;101490.0;;;14.84;55.12
32452;BME280;45528;52.102;5.242;2023-03-20T08:38:39;101499.0;;;14.38;55.69
32452;BME280;45528;52.102;5.242;2023-03-20T08:41:51;101490.0;;;14.41;56.07
32452;BME280;45528;52.102;5.242;2023-03-20T08:43:27;101495.0;;;14.44;56.01
32452;BME280;45528;52.102;5.242;2023-03-20T08:45:04;101490.0;;;14.5;55.93
32452;BME280;45528;52.102;5.242;2023-03-20T08:48:16;101497.0;;;14.45;56.17
32452;BME280;45528;52.102;5.242;2023-03-20T08:49:53;101494.0;;;14.57;56.05
32452;BME280;45528;52.102;5.242;2023-03-20T08:51:28;101499.0;;;14.56;57.03
32452;BME280;45528;52.102;5.242;2023-03-20T08:53:05;101494.0;;;14.46;57.04
32452;BME280;45528;52.102;5.242;2023-03-20T08:56:18;101493.0;;;14.45;57.71
32452;BME280;45528;52.102;5.242;2023-03-20T08:57:55;101499.0;;;14.72;56.85
32452;BME280;45528;52.102;5.242;2023-03-20T08:59:30;101499.0;;;14.54;57.47
32452;BME280;45528;52.102;5.242;2023-03-20T09:02:45;101496.0;;;14.88;57.19
32452;BME280;45528;52.102;5.242;2023-03-20T09:04:21;101501.0;;;14.57;58.03
32452;BME280;45528;52.102;5.242;2023-03-20T09:05:57;101501.0;;;14.65;57.58
32452;BME280;45528;52.102;5.242;2023-03-20T09:09:09;101500.0;;;14.18;58.71
32452;BME280;45528;52.102;5.242;2023-03-20T09:10:46;101498.0;;;14.69;58.24
32452;BME280;45528;52.102;5.242;2023-03-20T09:12:23;101501.0;;;14.71;58.22
32452;BME280;45528;52.102;5.242;2023-03-20T09:13:59;101505.0;;;14.66;58.58
32452;BME280;45528;52.102;5.242;2023-03-20T09:17:12;101502.0;;;14.79;58.37
32452;BME280;45528;52.102;5.242;2023-03-20T09:18:48;101509.0;;;14.32;58.31
32452;BME280;45528;52.102;5.242;2023-03-20T09:20:24;101509.0;;;14.53;59.03
32452;BME280;45528;52.102;5.242;2023-03-20T09:23:36;101500.0;;;14.34;59.64
32452;BME280;45528;52.102;5.242;2023-03-20T09:25:13;101510.0;;;14.49;59.98
32452;BME280;45528;52.102;5.242;2023-03-20T09:26:50;101508.0;;;14.06;60.17
32452;BME280;45528;52.102;5.242;2023-03-20T09:30:03;101508.0;;;14.35;60.05
32452;BME280;45528;52.102;5.242;2023-03-20T09:31:39;101509.0;;;14.54;60.23
32452;BME280;45528;52.102;5.242;2023-03-20T09:33:15;101505.0;;;14.78;60.33
32452;BME280;45528;52.102;5.242;2023-03-20T09:36:28;101499.0;;;14.98;59.96
32452;BME280;45528;52.102;5.242;2023-03-20T09:38:05;101500.0;;;14.99;60.19
32452;BME280;45528;52.102;5.242;2023-03-20T09:39:41;101498.0;;;15.07;59.55
32452;BME280;45528;52.102;5.242;2023-03-20T09:41:20;101503.0;;;14.78;59.77
32452;BME280;45528;52.102;5.242;2023-03-20T09:44:50;101500.0;;;15.07;59.5
32452;BME280;45528;52.102;5.242;2023-03-20T09:46:43;101496.0;;;15.1;59.59
32452;BME280;45528;52.102;5.242;2023-03-20T09:48:31;101494.0;;;14.88;59.48
32452;BME280;45528;52.102;5.242;2023-03-20T09:50:17;101495.0;;;14.88;59.81
32452;BME280;45528;52.102;5.242;2023-03-20T09:52:04;101494.0;;;14.86;59.63
32452;BME280;45528;52.102;5.242;2023-03-20T09:53:55;101490.0;;;14.87;60.23
32452;BME280;45528;52.102;5.242;2023-03-20T09:57:19;101495.0;;;15.14;59.41
32452;BME280;45528;52.102;5.242;2023-03-20T09:58:58;101492.0;;;15.1;59.14
32452;BME280;45528;52.102;5.242;2023-03-20T10:00:43;101490.0;;;15.08;59.49
32452;BME280;45528;52.102;5.242;2023-03-20T10:02:24;101491.0;;;15.0;59.47
32452;BME280;45528;52.102;5.242;2023-03-20T10:04:11;101489.0;;;14.77;59.75
32452;BME280;45528;52.102;5.242;2023-03-20T10:07:30;101480.0;;;14.87;59.03
32452;BME280;45528;52.102;5.242;2023-03-20T10:09:14;101489.0;;;14.71;59.36
32452;BME280;45528;52.102;5.242;2023-03-20T10:10:59;101492.0;;;15.02;59.24
32452;BME280;45528;52.102;5.242;2023-03-20T10:12:47;101494.0;;;14.83;59.16
32452;BME280;45528;52.102;5.242;2023-03-20T10:16:30;101494.0;;;14.95;59.32
32452;BME280;45528;52.102;5.242;2023-03-20T10:18:17;101492.0;;;14.82;59.61
32452;BME280;45528;52.102;5.242;2023-03-20T10:20:01;101485.0;;;14.89;59.5
32452;BME280;45528;52.102;5.242;2023-03-20T10:21:46;101493.0;;;14.77;59.7
32452;BME280;45528;52.102;5.242;2023-03-20T10:23:28;101489.0;;;15.07;58.86
32452;BME280;45528;52.102;5.242;2023-03-20T10:25:20;101480.0;;;15.04;59.02
32452;BME280;45528;52.102;5.242;2023-03-20T10:28:51;101488.0;;;15.33;59.0
32452;BME280;45528;52.102;5.242;2023-03-20T10:30:38;101485.0;;;15.39;59.01
32452;BME280;45528;52.102;5.242;2023-03-20T10:32:28;101483.0;;;15.21;58.73
32452;BME280;45528;52.102;5.242;2023-03-20T10:34:22;101483.0;;;15.48;57.75
32452;BME280;45528;52.102;5.242;2023-03-20T10:36:31;101478.0;;;15.31;58.31
32452;BME280;45528;52.102;5.242;2023-03-20T10:38:20;101481.0;;;15.4;58.64
32452;BME280;45528;52.102;5.242;2023-03-20T10:40:11;101480.0;;;15.07;58.99
32452;BME280;45528;52.102;5.242;2023-03-20T10:42:00;101481.0;;;15.14;58.64
32452;BME280;45528;52.102;5.242;2023-03-20T10:45:28;101475.0;;;15.04;58.27
32452;BME280;45528;52.102;5.242;2023-03-20T10:47:11;101477.0;;;15.29;59.07
32452;BME280;45528;52.102;5.242;2023-03-20T10:48:56;101476.0;;;15.49;59.37
32452;BME280;45528;52.102;5.242;2023-03-20T10:50:40;101477.0;;;15.71;59.36
32452;BME280;45528;52.102;5.242;2023-03-20T10:52:21;101480.0;;;15.62;59.3
32452;BME280;45528;52.102;5.242;2023-03-20T10:55:42;101483.0;;;15.69;59.13
32452;BME280;45528;52.102;5.242;2023-03-20T10:57:22;101467.0;;;15.35;58.72
32452;BME280;45528;52.102;5.242;2023-03-20T10:59:04;101476.0;;;15.49;58.6
32452;BME280;45528;52.102;5.242;2023-03-20T11:00:42;101475.0;;;15.08;59.16
32452;BME280;45528;52.102;5.242;2023-03-20T11:03:59;101471.0;;;15.25;59.43
32452;BME280;45528;52.102;5.242;2023-03-20T11:05:36;101470.0;;;15.33;59.62
32452;BME280;45528;52.102;5.242;2023-03-20T11:07:20;101471.0;;;15.19;59.74
32452;BME280;45528;52.102;5.242;2023-03-20T11:10:56;101472.0;;;15.15;61.0
32452;BME280;45528;52.102;5.242;2023-03-20T11:12:36;101469.0;;;15.38;60.26